Time;durP1;ratioP1;P1;durP2;ratioP2;P2;SDS_P1;SDS_P2;PMS_P1;PMS_P2;Temp;Humidity;BMP_temperature;BMP_pressure;BME280_temperature;BME280_humidity;BME280_pressure;Samples;Min_cycle;Max_cycle;Signal;HPM_P1;HPM_P2
2022/01/21 00:01:24;;;;;;;35.95;31.38;;;-3.10;99.00;-3.60;96914.00;;;;5016741;28;90779;-60
2022/01/21 00:03:51;;;;;;;33.92;29.25;;;-3.10;99.00;-3.70;96917.00;;;;5020393;28;87233;-60
2022/01/21 00:06:18;;;;;;;36.17;30.90;;;-3.10;98.90;-3.70;96916.00;;;;5017308;28;87299;-61
2022/01/21 00:08:46;;;;;;;34.45;29.55;;;-3.20;98.90;-3.70;96909.00;;;;5020167;28;87504;-61
2022/01/21 00:11:15;;;;;;;34.88;29.50;;;-3.20;98.80;-3.70;96910.00;;;;5019689;28;88515;-61
2022/01/21 00:13:42;;;;;;;33.20;27.00;;;-3.10;98.90;-3.70;96900.00;;;;5020055;28;87622;-61
2022/01/21 00:16:21;;;;;;;32.95;27.25;;;-3.20;98.70;-3.60;96911.00;;;;5020380;28;86775;-60
2022/01/21 00:18:56;;;;;;;32.92;27.63;;;-3.10;98.70;-3.60;96910.00;;;;5016377;28;88339;-60
2022/01/21 00:32:30;;;;;;;30.42;26.00;;;-3.20;98.50;-3.70;96896.00;;;;5019618;28;88543;-60
2022/01/21 00:34:56;;;;;;;29.02;24.58;;;-3.10;98.40;-3.60;96901.00;;;;5019157;28;87348;-60
2022/01/21 00:37:23;;;;;;;30.25;26.08;;;-3.10;98.40;-3.60;96907.00;;;;5018645;28;87094;-60
2022/01/21 00:39:56;;;;;;;29.35;26.25;;;-3.10;98.30;-3.60;96917.00;;;;5018560;28;88149;-60
2022/01/21 00:44:51;;;;;;;28.95;25.58;;;-3.10;98.10;-3.60;96911.00;;;;5002202;28;87112;-61
2022/01/21 00:47:18;;;;;;;28.58;25.45;;;-3.10;98.20;-3.60;96908.00;;;;5019724;28;86875;-61
2022/01/21 00:49:45;;;;;;;29.88;26.20;;;-3.10;98.10;-3.60;96906.00;;;;5018553;28;88387;-60
2022/01/21 00:52:11;;;;;;;29.70;25.67;;;-3.10;98.00;-3.60;96915.00;;;;5052001;27;88231;-60
2022/01/21 00:54:37;;;;;;;27.75;24.75;;;-3.10;97.90;-3.60;96915.00;;;;5018803;28;87500;-60
2022/01/21 00:57:04;;;;;;;28.25;24.27;;;-3.10;97.90;-3.60;96904.00;;;;5017737;28;87135;-60
2022/01/21 00:59:30;;;;;;;29.45;25.80;;;-3.20;97.80;-3.60;96910.00;;;;5018535;28;87689;-60
2022/01/21 01:01:57;;;;;;;27.90;24.90;;;-3.10;97.90;-3.60;96902.00;;;;5019951;28;87307;-61
2022/01/21 01:04:23;;;;;;;26.67;23.80;;;-3.10;97.80;-3.60;96903.00;;;;5022142;28;87303;-60
2022/01/21 01:06:49;;;;;;;26.80;23.92;;;-3.10;97.80;-3.60;96906.00;;;;5023175;28;86665;-61
2022/01/21 01:09:15;;;;;;;28.05;24.70;;;-3.10;97.70;-3.60;96907.00;;;;5023122;28;87053;-61
2022/01/21 01:19:57;;;;;;;25.65;22.92;;;-3.10;97.70;-3.60;96921.00;;;;5021855;28;87531;-61
2022/01/21 01:22:43;;;;;;;24.38;21.80;;;-3.10;97.50;-3.60;96916.00;;;;5022667;28;88474;-60
2022/01/21 01:27:56;;;;;;;27.35;24.42;;;-3.10;97.20;-3.60;96906.00;;;;5021795;28;87485;-60
2022/01/21 01:30:26;;;;;;;27.15;23.55;;;-3.10;97.40;-3.60;96910.00;;;;5021964;28;87698;-61
2022/01/21 01:32:57;;;;;;;24.80;22.20;;;-3.10;97.30;-3.60;96902.00;;;;5021491;28;87861;-61
2022/01/21 01:35:25;;;;;;;26.73;23.88;;;-3.10;97.20;-3.60;96904.00;;;;5022182;28;88034;-60
2022/01/21 01:51:06;;;;;;;25.95;23.25;;;-3.10;97.20;-3.70;96893.00;;;;5021741;28;88620;-60
2022/01/21 01:53:38;;;;;;;24.83;22.15;;;-3.20;97.10;-3.70;96893.00;;;;5004041;28;88564;-61
2022/01/21 01:56:09;;;;;;;25.42;22.55;;;-3.20;97.20;-3.70;96893.00;;;;5021569;28;87864;-62
2022/01/21 01:58:39;;;;;;;24.60;22.00;;;-3.20;97.20;-3.70;96891.00;;;;5021521;28;86803;-61
2022/01/21 02:01:06;;;;;;;24.20;21.60;;;-3.20;97.40;-3.70;96889.00;;;;5020617;28;87463;-60
2022/01/21 02:03:34;;;;;;;25.13;22.52;;;-3.20;97.30;-3.60;96893.00;;;;5022049;28;87980;-60
2022/01/21 02:06:03;;;;;;;26.88;23.80;;;-3.20;97.30;-3.70;96894.00;;;;5020544;28;87953;-61
2022/01/21 02:08:31;;;;;;;25.98;23.17;;;-3.20;97.40;-3.70;96890.00;;;;5026630;28;87761;-61
2022/01/21 02:10:57;;;;;;;26.13;23.33;;;-3.20;97.50;-3.70;96888.00;;;;5020363;28;88844;-60
2022/01/21 02:13:31;;;;;;;26.95;23.58;;;-3.20;97.50;-3.70;96896.00;;;;5020955;28;87272;-60
2022/01/21 02:17:11;;;;;;;25.52;22.92;;;-3.10;97.50;-3.70;96890.00;;;;5021967;28;87045;-60
2022/01/21 02:21:51;;;;;;;24.42;21.83;;;-3.20;97.30;-3.70;96890.00;;;;5019650;28;87701;-60
2022/01/21 02:24:24;;;;;;;27.08;24.20;;;-3.20;97.30;-3.70;96891.00;;;;5035973;28;88906;-60
2022/01/21 02:26:52;;;;;;;26.58;23.77;;;-3.20;97.40;-3.70;96893.00;;;;5020757;28;87179;-60
2022/01/21 02:29:38;;;;;;;26.45;23.75;;;-3.20;97.50;-3.70;96903.00;;;;5037811;28;87054;-60
2022/01/21 02:32:05;;;;;;;29.15;24.77;;;-3.20;97.60;-3.70;96891.00;;;;5002781;28;88768;-60
2022/01/21 02:34:32;;;;;;;27.98;24.98;;;-3.20;97.50;-3.70;96899.00;;;;5020162;28;88458;-61
2022/01/21 02:36:59;;;;;;;27.20;24.38;;;-3.20;97.50;-3.70;96892.00;;;;5020584;28;87121;-60
2022/01/21 02:39:25;;;;;;;27.73;24.83;;;-3.20;97.70;-3.70;96894.00;;;;5021897;28;87730;-60
2022/01/21 02:41:52;;;;;;;31.77;26.50;;;-3.20;97.70;-3.70;96894.00;;;;5019945;28;89963;-60
2022/01/21 02:44:18;;;;;;;28.15;25.15;;;-3.20;97.70;-3.70;96895.00;;;;5020798;28;87493;-60
2022/01/21 02:46:54;;;;;;;27.02;24.10;;;-3.20;97.70;-3.70;96878.00;;;;5036791;28;87274;-60
2022/01/21 02:49:20;;;;;;;28.88;25.60;;;-3.30;97.60;-3.80;96882.00;;;;5020707;28;86339;-60
2022/01/21 02:51:46;;;;;;;26.33;23.58;;;-3.30;97.60;-3.80;96870.00;;;;5036929;28;87638;-60
2022/01/21 02:54:12;;;;;;;28.23;24.35;;;-3.30;97.60;-3.80;96871.00;;;;5003105;28;87162;-60
2022/01/21 02:56:40;;;;;;;28.90;25.90;;;-3.30;97.50;-3.80;96864.00;;;;5020238;28;88851;-60
2022/01/21 02:59:08;;;;;;;29.42;26.33;;;-3.30;97.50;-3.80;96873.00;;;;5020171;28;87732;-61
2022/01/21 03:01:38;;;;;;;28.83;25.88;;;-3.30;97.50;-3.90;96880.00;;;;5003085;28;90138;-61
2022/01/21 03:04:08;;;;;;;29.40;26.27;;;-3.30;97.60;-3.90;96857.00;;;;5003154;28;89065;-60
2022/01/21 03:06:39;;;;;;;28.58;25.63;;;-3.40;97.80;-3.90;96863.00;;;;5018996;28;87232;-60
2022/01/21 03:09:08;;;;;;;28.73;25.88;;;-3.40;97.60;-3.90;96869.00;;;;5037183;28;86990;-60
2022/01/21 03:11:35;;;;;;;29.15;26.00;;;-3.30;97.70;-3.90;96852.00;;;;5020141;28;88890;-60
2022/01/21 03:14:01;;;;;;;30.00;26.88;;;-3.40;97.70;-3.90;96849.00;;;;5017867;28;87417;-61
2022/01/21 03:16:27;;;;;;;29.15;26.05;;;-3.40;97.60;-3.90;96845.00;;;;5036463;28;87766;-60
2022/01/21 03:18:54;;;;;;;30.42;26.88;;;-3.40;97.60;-4.00;96841.00;;;;5036064;28;87101;-61
2022/01/21 03:21:21;;;;;;;30.20;26.90;;;-3.50;97.40;-4.00;96844.00;;;;5019273;28;88598;-61
2022/01/21 03:23:51;;;;;;;30.05;26.88;;;-3.40;97.50;-4.00;96838.00;;;;5002398;28;88251;-60
2022/01/21 03:26:22;;;;;;;31.25;27.42;;;-3.50;97.40;-4.00;96838.00;;;;5036562;28;87023;-60
2022/01/21 03:28:56;;;;;;;30.70;27.38;;;-3.50;97.50;-4.00;96837.00;;;;5019675;28;87434;-60
2022/01/21 03:31:24;;;;;;;32.72;29.08;;;-3.40;97.40;-4.00;96827.00;;;;5035985;28;87925;-61
2022/01/21 03:33:52;;;;;;;32.35;28.17;;;-3.40;97.50;-4.00;96833.00;;;;5018695;28;87326;-60
2022/01/21 03:36:19;;;;;;;34.00;30.35;;;-3.50;97.30;-4.00;96832.00;;;;5019730;28;87815;-60
2022/01/21 03:38:46;;;;;;;34.10;30.50;;;-3.50;97.40;-4.00;96843.00;;;;5036674;28;86758;-60
2022/01/21 03:41:12;;;;;;;38.53;30.52;;;-3.50;97.50;-4.00;96844.00;;;;5036066;28;87845;-60
2022/01/21 03:43:38;;;;;;;34.70;30.58;;;-3.50;97.50;-4.00;96842.00;;;;5034575;28;87528;-60
2022/01/21 03:46:06;;;;;;;35.88;31.00;;;-3.50;97.50;-4.00;96842.00;;;;5035779;28;89033;-60
2022/01/21 03:48:33;;;;;;;35.22;31.15;;;-3.50;97.40;-4.00;96838.00;;;;5019123;28;87052;-63
2022/01/21 03:51:00;;;;;;;37.47;32.10;;;-3.50;97.30;-4.00;96827.00;;;;5018724;28;87529;-60
2022/01/21 03:53:27;;;;;;;35.35;31.48;;;-3.50;97.30;-4.10;96825.00;;;;5035754;28;87422;-61
2022/01/21 03:55:53;;;;;;;34.97;30.63;;;-3.50;97.30;-4.10;96830.00;;;;5018741;28;87014;-60
2022/01/21 03:58:20;;;;;;;38.15;34.03;;;-3.50;97.30;-4.10;96840.00;;;;5019598;28;87502;-60
2022/01/21 04:00:54;;;;;;;41.17;35.08;;;-3.60;97.30;-4.10;96860.00;;;;5034994;28;86962;-61
2022/01/21 04:03:23;;;;;;;40.47;33.70;;;-3.50;97.30;-4.10;96862.00;;;;5002826;28;86615;-60
2022/01/21 04:05:51;;;;;;;39.85;34.88;;;-3.50;97.30;-4.10;96867.00;;;;5036356;28;87043;-60
2022/01/21 04:08:18;;;;;;;41.47;34.53;;;-3.50;97.30;-4.10;96866.00;;;;5019239;28;87177;-60
2022/01/21 04:10:54;;;;;;;40.97;35.42;;;-3.50;97.40;-4.10;96863.00;;;;5034652;28;88627;-60
2022/01/21 04:13:23;;;;;;;40.83;36.20;;;-3.60;97.50;-4.10;96864.00;;;;5035655;28;88271;-60
2022/01/21 04:15:55;;;;;;;42.92;35.70;;;-3.50;97.50;-4.10;96861.00;;;;5033372;28;87366;-62
2022/01/21 04:18:25;;;;;;;43.50;36.38;;;-3.60;97.40;-4.10;96861.00;;;;5018671;28;87747;-61
2022/01/21 04:21:03;;;;;;;42.13;36.38;;;-3.60;97.20;-4.10;96855.00;;;;5018679;28;90276;-62
2022/01/21 04:23:31;;;;;;;43.22;36.42;;;-3.60;97.40;-4.10;96862.00;;;;5034812;28;88190;-61
2022/01/21 04:25:57;;;;;;;42.40;36.78;;;-3.60;97.30;-4.10;96853.00;;;;5032659;28;88052;-60
2022/01/21 04:28:24;;;;;;;46.25;37.42;;;-3.60;97.20;-4.10;96855.00;;;;5018862;28;86293;-59
2022/01/21 04:30:51;;;;;;;44.92;37.80;;;-3.60;97.20;-4.10;96856.00;;;;5034715;28;88651;-60
2022/01/21 04:33:24;;;;;;;45.75;38.45;;;-3.60;97.10;-4.20;96866.00;;;;5035125;28;87308;-60
2022/01/21 04:36:01;;;;;;;46.15;38.30;;;-3.60;97.10;-4.20;96864.00;;;;5016775;28;88593;-60
2022/01/21 04:38:29;;;;;;;47.72;40.40;;;-3.70;97.00;-4.20;96863.00;;;;5034996;28;87101;-60
2022/01/21 04:49:11;;;;;;;48.78;40.75;;;-3.70;97.30;-4.20;96862.00;;;;5028557;28;87993;-61
2022/01/21 04:51:42;;;;;;;49.58;40.38;;;-3.70;97.30;-4.20;96856.00;;;;5018181;28;87968;-60
2022/01/21 04:54:09;;;;;;;;;;;-3.70;97.30;-4.30;96849.00;;;;5017220;28;89232;-60
2022/01/21 04:56:39;;;;;;;49.67;39.78;;;-3.70;97.30;-4.30;96846.00;;;;5052424;27;87037;-60
2022/01/21 04:59:05;;;;;;;48.15;40.45;;;-3.70;97.10;-4.30;96854.00;;;;5034410;28;87354;-60
2022/01/21 05:01:32;;;;;;;50.55;40.72;;;-3.70;97.00;-4.30;96857.00;;;;5017022;28;88594;-59
2022/01/21 05:03:59;;;;;;;54.40;42.33;;;-3.70;96.90;-4.30;96851.00;;;;5015165;28;90056;-60
2022/01/21 05:06:25;;;;;;;49.55;41.92;;;-3.80;96.90;-4.40;96845.00;;;;5017714;28;87244;-60
2022/01/21 05:08:54;;;;;;;52.30;42.63;;;-3.80;97.10;-4.30;96856.00;;;;5017857;28;87557;-59
2022/01/21 05:11:22;;;;;;;50.38;42.95;;;-3.70;97.20;-4.30;96850.00;;;;5017504;28;87761;-59
2022/01/21 05:13:58;;;;;;;52.08;41.63;;;-3.70;97.20;-4.30;96847.00;;;;5033615;28;87594;-60
2022/01/21 05:16:35;;;;;;;50.08;41.20;;;-3.70;96.90;-4.30;96836.00;;;;5048632;27;87238;-60
2022/01/21 05:19:13;;;;;;;48.72;38.33;;;-3.80;96.80;-4.40;96831.00;;;;5016639;28;86392;-60
2022/01/21 05:21:49;;;;;;;50.15;41.33;;;-3.80;96.80;-4.40;96821.00;;;;5018107;28;87716;-61
2022/01/21 05:24:32;;;;;;;52.70;41.05;;;-3.80;96.80;-4.40;96836.00;;;;5002945;28;88501;-62
2022/01/21 05:27:01;;;;;;;49.50;40.08;;;-3.80;96.80;-4.40;96824.00;;;;5030130;28;88392;-62
2022/01/21 05:29:36;;;;;;;48.45;40.90;;;-3.80;96.80;-4.40;96830.00;;;;5031113;28;86905;-62
2022/01/21 05:32:14;;;;;;;52.10;42.50;;;-3.90;96.80;-4.40;96834.00;;;;5017184;28;88692;-62
2022/01/21 05:34:55;;;;;;;50.88;42.35;;;-3.90;96.80;-4.50;96826.00;;;;5031142;28;88462;-62
2022/01/21 05:37:47;;;;;;;52.33;41.67;;;-3.90;96.90;-4.50;96819.00;;;;5016155;28;87478;-62
2022/01/21 05:40:29;;;;;;;;;;;-3.90;96.80;-4.50;96817.00;;;;5017211;28;86949;-63
2022/01/21 05:42:55;;;;;;;53.05;41.80;;;-3.90;97.10;-4.50;96817.00;;;;5019700;28;87575;-62
2022/01/21 05:48:40;;;;;;;54.05;41.47;;;-4.00;97.10;-4.50;96807.00;;;;5018199;28;88317;-62
2022/01/21 05:51:09;;;;;;;50.10;40.35;;;-4.00;97.00;-4.60;96808.00;;;;5021538;28;86992;-62
2022/01/21 05:53:50;;;;;;;51.53;40.75;;;-4.00;97.30;-4.60;96803.00;;;;5019800;28;88769;-62
2022/01/21 05:56:48;;;;;;;53.55;39.75;;;-4.00;97.00;-4.70;96816.00;;;;5020270;28;89406;-62
2022/01/21 05:59:28;;;;;;;52.85;41.13;;;-4.00;96.70;-4.70;96804.00;;;;5037158;28;87736;-62
2022/01/21 06:01:54;;;;;;;49.72;39.15;;;-4.10;97.00;-4.70;96790.00;;;;5019226;28;87744;-62
2022/01/21 06:04:21;;;;;;;48.42;38.58;;;-4.10;97.00;-4.70;96790.00;;;;5037371;28;87526;-63
2022/01/21 06:06:47;;;;;;;50.30;39.22;;;-4.10;96.80;-4.70;96791.00;;;;5020538;28;88765;-63
2022/01/21 06:09:13;;;;;;;51.17;39.75;;;-4.20;96.70;-4.70;96782.00;;;;5033145;28;87406;-62
2022/01/21 06:11:39;;;;;;;47.30;38.53;;;-4.20;96.70;-4.80;96773.00;;;;5035276;28;86558;-61
2022/01/21 06:14:06;;;;;;;48.53;37.90;;;-4.20;96.70;-4.80;96776.00;;;;5021462;28;89380;-61
2022/01/21 06:16:34;;;;;;;48.45;36.58;;;-4.20;96.60;-4.80;96774.00;;;;5020293;28;88440;-61
2022/01/21 06:19:00;;;;;;;48.40;38.20;;;-4.20;96.60;-4.80;96782.00;;;;5021173;28;88177;-61
2022/01/21 06:21:27;;;;;;;47.67;37.60;;;-4.30;96.60;-4.90;96776.00;;;;5021085;28;87379;-61
2022/01/21 06:23:53;;;;;;;44.97;37.05;;;-4.30;96.60;-4.90;96770.00;;;;5021315;28;87619;-61
2022/01/21 06:26:19;;;;;;;50.35;37.00;;;-4.30;96.60;-4.80;96771.00;;;;5020525;28;87532;-61
2022/01/21 06:28:45;;;;;;;45.70;34.72;;;-4.30;96.60;-4.90;96773.00;;;;5021278;28;87163;-61
2022/01/21 06:31:11;;;;;;;43.75;35.25;;;-4.30;96.40;-4.90;96764.00;;;;5020183;28;87115;-61
2022/01/21 06:33:37;;;;;;;44.20;35.30;;;-4.30;96.50;-4.90;96771.00;;;;5021309;28;87700;-61
2022/01/21 06:36:04;;;;;;;47.33;36.47;;;-4.30;96.40;-4.90;96752.00;;;;5020792;28;87407;-61
2022/01/21 06:38:30;;;;;;;43.17;35.35;;;-4.30;96.40;-4.90;96760.00;;;;5020962;28;86987;-61
2022/01/21 06:40:56;;;;;;;47.65;36.80;;;-4.30;96.30;-4.90;96773.00;;;;5020481;28;86928;-61
2022/01/21 06:43:22;;;;;;;43.53;35.33;;;-4.30;96.30;-4.90;96750.00;;;;5020507;28;89094;-61
2022/01/21 06:45:49;;;;;;;45.40;37.00;;;-4.30;96.30;-4.90;96767.00;;;;5002615;28;90907;-61
2022/01/21 06:48:15;;;;;;;45.38;36.00;;;-4.30;96.30;-4.90;96757.00;;;;5019954;28;87195;-61
2022/01/21 06:50:42;;;;;;;44.60;35.13;;;-4.30;96.30;-4.90;96769.00;;;;5020558;28;86990;-62
2022/01/21 06:53:09;;;;;;;45.47;36.22;;;-4.30;96.20;-4.90;96758.00;;;;5020504;28;87719;-61
2022/01/21 06:55:36;;;;;;;47.30;37.50;;;-4.30;96.40;-4.90;96740.00;;;;5019879;28;87483;-63
2022/01/21 06:58:04;;;;;;;43.40;36.67;;;-4.30;96.10;-4.90;96753.00;;;;5018065;28;87205;-61
2022/01/21 07:00:30;;;;;;;48.22;37.78;;;-4.30;96.20;-5.00;96753.00;;;;5020201;28;86548;-61
2022/01/21 07:02:56;;;;;;;50.17;40.53;;;-4.40;96.10;-5.00;96766.00;;;;5026980;28;88579;-63
2022/01/21 07:05:25;;;;;;;47.83;38.20;;;-4.40;96.40;-5.00;96754.00;;;;5020854;28;87209;-62
2022/01/21 07:07:52;;;;;;;47.65;39.70;;;-4.40;96.50;-5.00;96762.00;;;;5018968;28;88177;-61
2022/01/21 07:10:19;;;;;;;49.30;40.55;;;-4.40;96.50;-5.00;96782.00;;;;5018141;28;87045;-61
2022/01/21 07:12:45;;;;;;;49.92;41.78;;;-4.40;96.50;-5.00;96770.00;;;;5020473;28;87655;-61
2022/01/21 07:15:16;;;;;;;50.55;41.00;;;-4.30;96.60;-4.90;96768.00;;;;5020161;28;87320;-61
2022/01/21 07:17:43;;;;;;;48.17;40.50;;;-4.30;96.60;-5.00;96773.00;;;;5018806;28;86966;-63
2022/01/21 07:20:10;;;;;;;50.90;39.97;;;-4.40;96.20;-4.90;96777.00;;;;5020221;28;87211;-61
2022/01/21 07:22:36;;;;;;;49.97;40.63;;;-4.30;96.40;-5.00;96779.00;;;;5020215;28;87498;-61
2022/01/21 07:25:03;;;;;;;45.00;37.92;;;-4.40;96.00;-5.00;96776.00;;;;5019309;28;87675;-62
2022/01/21 07:27:29;;;;;;;48.67;39.83;;;-4.30;96.20;-4.90;96780.00;;;;5019786;28;87540;-61
2022/01/21 07:29:56;;;;;;;47.72;39.80;;;-4.30;96.10;-5.00;96767.00;;;;5019685;28;87446;-61
2022/01/21 07:32:22;;;;;;;47.00;37.40;;;-4.30;95.90;-5.10;96771.00;;;;5019555;28;88704;-61
2022/01/21 07:34:48;;;;;;;47.42;39.63;;;-4.40;95.80;-5.00;96764.00;;;;5019791;28;88263;-60
2022/01/21 07:37:14;;;;;;;45.80;38.05;;;-4.40;96.00;-5.00;96759.00;;;;5020204;28;86974;-60
2022/01/21 07:39:41;;;;;;;48.22;39.03;;;-4.40;95.80;-5.10;96757.00;;;;5020296;28;88422;-61
2022/01/21 07:42:07;;;;;;;45.92;38.28;;;-4.40;95.80;-5.10;96754.00;;;;5019980;28;87233;-60
2022/01/21 07:44:33;;;;;;;48.58;38.38;;;-4.40;95.80;-5.10;96740.00;;;;5020076;28;87606;-62
2022/01/21 07:47:00;;;;;;;46.42;38.58;;;-4.40;95.80;-5.00;96750.00;;;;5019426;28;86984;-61
2022/01/21 07:49:26;;;;;;;40.60;36.13;;;-4.40;95.80;-5.00;96768.00;;;;5020291;28;86567;-61
2022/01/21 07:51:52;;;;;;;45.13;37.38;;;-4.40;95.70;-5.00;96772.00;;;;5019932;28;87905;-60
2022/01/21 07:54:19;;;;;;;46.42;37.40;;;-4.30;95.70;-4.90;96777.00;;;;5019149;28;87624;-61
2022/01/21 07:56:45;;;;;;;45.08;37.60;;;-4.30;96.00;-4.90;96773.00;;;;5018692;28;88451;-61
2022/01/21 07:59:14;;;;;;;44.17;36.28;;;-4.30;95.50;-4.90;96763.00;;;;5019658;28;87009;-61
2022/01/21 08:01:41;;;;;;;44.53;36.83;;;-4.30;95.30;-5.00;96771.00;;;;5016492;28;88146;-63
2022/01/21 08:04:08;;;;;;;40.80;35.35;;;-4.40;95.10;-5.00;96769.00;;;;5019681;28;87752;-58
2022/01/21 08:06:35;;;;;;;43.05;36.55;;;-4.40;95.30;-5.00;96756.00;;;;5020146;28;87194;-61
2022/01/21 08:09:02;;;;;;;41.05;34.67;;;-4.30;95.30;-4.90;96754.00;;;;5019983;28;87450;-58
2022/01/21 08:11:28;;;;;;;40.63;34.13;;;-4.30;95.20;-4.90;96755.00;;;;5017578;28;88645;-62
2022/01/21 08:13:54;;;;;;;40.75;33.63;;;-4.30;94.90;-5.00;96746.00;;;;5019739;28;86303;-62
2022/01/21 08:16:21;;;;;;;42.63;35.08;;;-4.40;95.00;-4.90;96756.00;;;;5019942;28;87837;-61
2022/01/21 08:18:48;;;;;;;41.42;34.42;;;-4.30;95.10;-4.90;96750.00;;;;5019897;28;86953;-60
2022/01/21 08:21:18;;;;;;;39.92;33.38;;;-4.30;95.10;-4.90;96747.00;;;;5019110;28;89647;-61
2022/01/21 08:23:48;;;;;;;37.90;33.75;;;-4.20;95.00;-4.90;96747.00;;;;5019259;28;87535;-60
2022/01/21 08:26:17;;;;;;;41.30;32.10;;;-4.20;94.80;-4.90;96751.00;;;;5018815;28;87561;-61
2022/01/21 08:28:43;;;;;;;41.17;32.63;;;-4.30;94.80;-4.80;96752.00;;;;5017037;28;86971;-61
2022/01/21 08:31:10;;;;;;;38.20;32.38;;;-4.20;94.90;-4.80;96743.00;;;;5018886;28;87542;-60
2022/01/21 08:33:36;;;;;;;40.53;32.78;;;-4.20;94.80;-4.80;96735.00;;;;5019147;28;88019;-60
2022/01/21 08:36:02;;;;;;;39.08;32.97;;;-4.20;94.70;-4.80;96753.00;;;;5019032;28;87274;-60
2022/01/21 08:38:28;;;;;;;40.58;35.00;;;-4.10;94.90;-4.90;96733.00;;;;5019585;28;86626;-60
2022/01/21 08:40:55;;;;;;;43.58;33.25;;;-4.20;94.60;-4.80;96739.00;;;;5019358;28;88105;-60
2022/01/21 08:43:21;;;;;;;36.70;32.33;;;-4.10;94.70;-4.80;96727.00;;;;5019329;28;87698;-60
2022/01/21 08:45:47;;;;;;;39.25;33.15;;;-4.10;94.60;-4.70;96727.00;;;;5019194;28;88271;-60
2022/01/21 08:48:13;;;;;;;38.55;32.65;;;-4.10;94.40;-4.80;96717.00;;;;5019143;28;86943;-60
2022/01/21 08:50:39;;;;;;;38.35;32.88;;;-4.20;94.40;-4.80;96720.00;;;;5019042;28;87430;-60
2022/01/21 08:53:48;;;;;;;39.78;33.40;;;-4.10;94.60;-4.70;96724.00;;;;5018549;28;88040;-60
2022/01/21 08:55:56;;;;;;;39.80;34.25;;;-4.10;94.60;-4.70;96720.00;;;;5012065;28;87042;-60
2022/01/21 08:58:23;;;;;;;42.85;35.08;;;-4.10;94.70;-4.80;96710.00;;;;5016974;28;87647;-60
2022/01/21 09:00:49;;;;;;;38.38;33.60;;;-4.10;94.70;-4.70;96708.00;;;;5018668;28;87677;-62
2022/01/21 09:03:15;;;;;;;41.90;33.30;;;-4.10;94.60;-4.80;96703.00;;;;5019263;28;87447;-60
2022/01/21 09:05:48;;;;;;;37.45;32.97;;;-4.20;94.40;-4.80;96694.00;;;;5016666;28;87532;-60
2022/01/21 09:08:16;;;;;;;37.67;33.58;;;-4.20;94.70;-4.70;96710.00;;;;5018929;28;87332;-60
2022/01/21 09:10:42;;;;;;;37.55;33.45;;;-4.10;94.50;-4.80;96702.00;;;;5015976;28;88509;-61
2022/01/21 09:13:08;;;;;;;37.88;33.45;;;-4.20;94.40;-4.70;96704.00;;;;4993885;28;89005;-62
2022/01/21 09:15:36;;;;;;;37.47;32.22;;;-4.10;94.40;-4.70;96688.00;;;;5019125;28;87291;-61
2022/01/21 09:18:05;;;;;;;36.75;32.75;;;-4.10;94.40;-4.70;96704.00;;;;5016334;28;87480;-61
2022/01/21 09:20:37;;;;;;;37.65;32.10;;;-4.10;94.30;-4.90;96699.00;;;;5018623;28;86884;-61
2022/01/21 09:23:05;;;;;;;35.08;31.25;;;-4.20;94.60;-4.80;96694.00;;;;5018810;28;87391;-61
2022/01/21 09:25:31;;;;;;;39.47;32.75;;;-4.20;94.40;-4.80;96693.00;;;;5017215;28;88476;-61
2022/01/21 09:27:59;;;;;;;38.03;32.40;;;-4.20;94.40;-4.80;96696.00;;;;5055187;27;86431;-61
2022/01/21 09:30:26;;;;;;;34.63;29.67;;;-4.20;94.40;-4.80;96691.00;;;;5021856;28;89047;-60
2022/01/21 09:32:52;;;;;;;37.00;30.85;;;-4.10;94.40;-4.70;96697.00;;;;5022342;28;87432;-61
2022/01/21 09:35:18;;;;;;;36.92;30.48;;;-4.10;94.40;-4.70;96689.00;;;;5036473;28;88310;-61
2022/01/21 09:37:45;;;;;;;35.35;29.70;;;-4.10;94.30;-4.80;96679.00;;;;5021815;28;88168;-61
2022/01/21 09:40:12;;;;;;;34.10;30.08;;;-4.20;94.30;-4.80;96678.00;;;;5019556;28;88723;-61
2022/01/21 09:42:38;;;;;;;33.70;30.08;;;-4.20;94.30;-4.90;96674.00;;;;5021211;28;87470;-61
2022/01/21 09:45:12;;;;;;;34.45;30.48;;;-4.20;94.20;-4.90;96667.00;;;;5021965;28;86912;-61
2022/01/21 09:47:51;;;;;;;33.80;29.92;;;-4.30;94.30;-5.00;96669.00;;;;5021334;28;87236;-59
2022/01/21 09:50:21;;;;;;;32.25;28.48;;;-4.30;94.40;-5.00;96666.00;;;;5021525;28;87026;-60
2022/01/21 09:52:53;;;;;;;32.80;27.48;;;-4.30;94.40;-4.90;96662.00;;;;5021323;28;87503;-60
2022/01/21 09:55:22;;;;;;;34.00;28.95;;;-4.30;94.30;-5.00;96659.00;;;;5020329;28;87704;-61
2022/01/21 09:57:52;;;;;;;30.27;26.98;;;-4.30;94.40;-4.90;96659.00;;;;5021102;28;87389;-60
2022/01/21 10:00:22;;;;;;;31.33;27.77;;;-4.30;94.30;-5.00;96654.00;;;;5020668;28;88473;-60
2022/01/21 10:02:50;;;;;;;32.88;27.55;;;-4.30;94.50;-4.90;96664.00;;;;5021467;28;88230;-62
2022/01/21 10:05:17;;;;;;;29.73;25.77;;;-4.30;94.70;-5.00;96657.00;;;;5021578;28;87074;-62
2022/01/21 10:07:47;;;;;;;30.95;26.70;;;-4.30;94.40;-5.00;96659.00;;;;5051695;27;87416;-61
2022/01/21 10:10:15;;;;;;;30.73;27.40;;;-4.30;94.60;-5.00;96648.00;;;;5020302;28;87557;-60
2022/01/21 10:12:46;;;;;;;28.77;25.70;;;-4.30;94.30;-4.90;96661.00;;;;5021002;28;88381;-60
2022/01/21 10:15:13;;;;;;;30.98;26.90;;;-4.30;94.40;-5.00;96646.00;;;;5037098;28;86965;-60
2022/01/21 10:17:57;;;;;;;29.77;26.55;;;-4.40;94.60;-5.10;96655.00;;;;5021222;28;86770;-60
2022/01/21 10:20:24;;;;;;;29.73;26.42;;;-4.50;94.40;-5.20;96638.00;;;;5017913;28;87834;-60
2022/01/21 10:23:09;;;;;;;32.88;27.50;;;-4.60;94.50;-5.30;96653.00;;;;5021529;28;87619;-60
2022/01/21 10:25:40;;;;;;;30.90;27.25;;;-4.60;94.90;-5.20;96637.00;;;;5020032;28;88358;-61
2022/01/21 10:28:17;;;;;;;29.30;25.83;;;-4.50;95.10;-5.20;96631.00;;;;5020534;28;87387;-61
2022/01/21 10:30:45;;;;;;;33.20;27.70;;;-4.50;95.00;-5.20;96634.00;;;;5020041;28;87514;-60
2022/01/21 10:33:26;;;;;;;30.77;26.27;;;-4.50;95.00;-5.20;96638.00;;;;5021016;28;87292;-61
2022/01/21 10:36:15;;;;;;;31.00;27.13;;;-4.50;95.00;-5.20;96627.00;;;;5020598;28;87207;-60
2022/01/21 10:38:46;;;;;;;28.60;25.58;;;-4.60;94.90;-5.20;96634.00;;;;5020533;28;87073;-62
2022/01/21 10:41:18;;;;;;;29.45;26.33;;;-4.50;95.00;-5.30;96630.00;;;;5021139;28;88153;-62
2022/01/21 10:44:03;;;;;;;29.00;26.00;;;-4.60;95.00;-5.20;96623.00;;;;5021908;28;87385;-62
2022/01/21 10:46:29;;;;;;;29.65;26.45;;;-4.60;95.10;-5.20;96625.00;;;;5021655;28;87568;-62
2022/01/21 10:49:07;;;;;;;29.38;26.27;;;-4.60;94.90;-5.20;96616.00;;;;5021500;28;87045;-62
2022/01/21 10:51:37;;;;;;;28.40;25.33;;;-4.60;94.80;-5.30;96604.00;;;;5009095;28;88785;-63
2022/01/21 10:54:26;;;;;;;29.02;25.75;;;-4.60;94.70;-5.40;96608.00;;;;5020581;28;89936;-61
2022/01/21 10:57:12;;;;;;;28.55;25.20;;;-4.70;94.70;-5.30;96612.00;;;;5019330;28;87320;-62
2022/01/21 11:00:05;;;;;;;30.08;25.88;;;-4.70;94.90;-5.30;96607.00;;;;5021101;28;87139;-62
2022/01/21 11:02:50;;;;;;;28.63;25.35;;;-4.60;94.90;-5.40;96612.00;;;;5020321;28;87562;-61
2022/01/21 11:05:25;;;;;;;29.13;24.73;;;-4.70;94.50;-5.40;96618.00;;;;5020678;28;88230;-62
2022/01/21 11:08:07;;;;;;;28.10;23.77;;;-4.70;94.60;-5.30;96608.00;;;;5020506;28;87256;-62
2022/01/21 11:10:33;;;;;;;27.77;23.52;;;-4.70;94.50;-5.30;96606.00;;;;5021583;28;86296;-61
2022/01/21 11:13:11;;;;;;;26.23;22.90;;;-4.70;94.30;-5.40;96596.00;;;;5014842;28;87469;-62
2022/01/21 11:15:38;;;;;;;28.35;23.70;;;-4.70;94.20;-5.40;96600.00;;;;5019963;28;88491;-61
2022/01/21 11:18:07;;;;;;;29.10;23.55;;;-4.80;94.10;-5.40;96604.00;;;;5016214;28;88078;-62
2022/01/21 11:20:37;;;;;;;26.08;22.90;;;-4.70;94.50;-5.40;96603.00;;;;5020012;28;87406;-62
2022/01/21 11:23:06;;;;;;;25.35;22.35;;;-4.70;94.30;-5.50;96593.00;;;;5020710;28;87895;-62
2022/01/21 11:25:58;;;;;;;28.48;23.10;;;-4.80;94.20;-5.50;96589.00;;;;5018075;28;87527;-62
2022/01/21 11:28:36;;;;;;;;;;;-4.70;94.30;-5.50;96599.00;;;;5015888;28;87166;-62
2022/01/21 11:31:03;;;;;;;26.10;22.50;;;-4.80;94.40;-5.50;96595.00;;;;5017827;28;87299;-62
2022/01/21 11:33:29;;;;;;;25.45;22.70;;;-4.80;94.50;-5.60;96612.00;;;;5020476;28;88496;-62
2022/01/21 11:35:55;;;;;;;25.70;22.95;;;-4.90;94.30;-5.70;96605.00;;;;5020479;28;87382;-62
2022/01/21 11:38:25;;;;;;;25.88;22.75;;;-5.00;94.20;-5.70;96613.00;;;;5020192;28;86899;-64
2022/01/21 11:40:53;;;;;;;27.10;22.40;;;-5.10;94.30;-5.80;96615.00;;;;5020114;28;87241;-62
2022/01/21 11:43:21;;;;;;;29.25;22.65;;;-5.10;94.50;-5.70;96606.00;;;;5019553;28;90014;-62